Time;durP1;ratioP1;P1;durP2;ratioP2;P2;SDS_P1;SDS_P2;PMS_P1;PMS_P2;Temp;Humidity;BMP_temperature;BMP_pressure;BME280_temperature;BME280_humidity;BME280_pressure;Samples;Min_cycle;Max_cycle;Signal;HPM_P1;HPM_P2
2023/12/21 00:01:48;;;;;;;1999.90;999.90;;;2.80;90.50;;;;;;5047377;28;20146;-78
2023/12/21 00:04:14;;;;;;;1999.90;999.90;;;2.90;90.40;;;;;;5045393;28;20034;-77
2023/12/21 00:06:40;;;;;;;1999.90;999.90;;;2.80;90.40;;;;;;5044619;28;20037;-78
2023/12/21 00:09:06;;;;;;;1999.90;999.90;;;2.80;90.00;;;;;;5045956;28;20033;-77
2023/12/21 00:11:32;;;;;;;1999.90;999.90;;;2.80;90.10;;;;;;5046668;28;20056;-77
2023/12/21 00:13:59;;;;;;;1999.90;999.90;;;2.80;90.20;;;;;;5044431;28;20032;-77
2023/12/21 00:16:25;;;;;;;1999.90;999.90;;;2.80;90.60;;;;;;5046958;28;20059;-76
2023/12/21 00:18:50;;;;;;;1999.90;999.90;;;2.90;90.10;;;;;;5045137;28;20068;-77
2023/12/21 00:21:16;;;;;;;1999.90;999.90;;;2.90;90.20;;;;;;5046024;28;20033;-77
2023/12/21 00:23:42;;;;;;;1999.90;999.90;;;2.80;90.40;;;;;;5040996;28;20051;-77
2023/12/21 00:26:10;;;;;;;1999.90;999.90;;;2.80;90.70;;;;;;5045723;28;20035;-76
2023/12/21 00:28:36;;;;;;;1999.90;999.90;;;2.70;90.80;;;;;;5044950;28;20112;-77
2023/12/21 00:31:02;;;;;;;1999.90;999.90;;;2.70;91.10;;;;;;5055841;28;20048;-77
2023/12/21 00:33:28;;;;;;;1999.90;999.90;;;2.60;91.20;;;;;;5045356;28;20029;-78
2023/12/21 00:35:54;;;;;;;1999.90;999.90;;;2.60;91.10;;;;;;5043830;28;20039;-77
2023/12/21 00:38:20;;;;;;;1999.90;999.90;;;2.60;91.30;;;;;;5044876;28;20052;-77
2023/12/21 00:40:46;;;;;;;1999.90;999.90;;;2.50;91.30;;;;;;5043894;28;20021;-77
2023/12/21 00:43:11;;;;;;;1999.90;999.90;;;2.50;91.30;;;;;;5044333;28;20396;-77
2023/12/21 00:45:37;;;;;;;1999.90;999.90;;;2.50;91.90;;;;;;5045502;28;20032;-77
2023/12/21 00:48:03;;;;;;;1999.90;999.90;;;2.60;91.30;;;;;;5045016;28;20065;-77
2023/12/21 00:50:28;;;;;;;1999.90;999.90;;;2.60;91.40;;;;;;5046512;28;20037;-76
2023/12/21 00:52:54;;;;;;;1999.90;999.90;;;2.60;91.30;;;;;;5046631;28;20037;-77
2023/12/21 00:55:20;;;;;;;1999.90;999.90;;;2.60;91.20;;;;;;5044257;28;20076;-76
2023/12/21 00:57:45;;;;;;;1999.90;999.90;;;2.70;91.20;;;;;;5045910;28;20083;-76
2023/12/21 01:00:11;;;;;;;1999.90;999.90;;;2.80;91.00;;;;;;5041810;28;20546;-76
2023/12/21 01:02:38;;;;;;;1999.90;999.90;;;2.80;90.90;;;;;;5042144;28;20078;-76
2023/12/21 01:05:04;;;;;;;1999.90;999.90;;;2.90;90.60;;;;;;5052937;28;20392;-76
2023/12/21 01:07:29;;;;;;;1999.90;999.90;;;3.00;90.60;;;;;;5039400;28;20063;-77
2023/12/21 01:09:55;;;;;;;1999.90;999.90;;;3.00;90.40;;;;;;5044349;28;20486;-77
2023/12/21 01:12:21;;;;;;;1999.90;999.90;;;3.00;90.20;;;;;;5044250;28;20548;-76
2023/12/21 01:14:49;;;;;;;1999.90;999.90;;;3.00;90.20;;;;;;5044596;28;20112;-77
2023/12/21 01:17:15;;;;;;;1999.90;999.90;;;3.10;90.20;;;;;;5046914;28;20025;-76
2023/12/21 01:19:41;;;;;;;1999.90;999.90;;;3.10;90.10;;;;;;5047257;28;20151;-77
2023/12/21 01:22:07;;;;;;;1999.90;999.90;;;3.10;90.20;;;;;;5045636;28;20033;-76
2023/12/21 01:24:32;;;;;;;1999.90;999.90;;;3.20;90.30;;;;;;5050062;28;20112;-77
2023/12/21 01:26:58;;;;;;;1999.90;999.90;;;3.20;90.10;;;;;;5047310;28;20040;-76
2023/12/21 01:29:24;;;;;;;1999.90;999.90;;;3.20;90.10;;;;;;5049340;28;20034;-77
2023/12/21 01:31:50;;;;;;;1999.90;999.90;;;3.20;90.00;;;;;;5044793;28;20037;-77
2023/12/21 01:34:16;;;;;;;1999.90;999.90;;;3.20;90.10;;;;;;5045917;28;20037;-76
2023/12/21 01:36:42;;;;;;;1999.90;999.90;;;3.30;90.00;;;;;;5044179;28;20041;-77
2023/12/21 01:39:08;;;;;;;1999.90;999.90;;;3.20;90.20;;;;;;5049239;28;20025;-77
2023/12/21 01:41:34;;;;;;;1999.90;999.90;;;3.20;90.10;;;;;;5047301;28;20021;-76
2023/12/21 01:44:02;;;;;;;1999.90;999.90;;;3.20;90.00;;;;;;5048529;28;20049;-76
2023/12/21 01:46:28;;;;;;;1999.90;999.90;;;3.20;90.10;;;;;;5046362;28;20052;-77
2023/12/21 01:48:57;;;;;;;1999.90;999.90;;;3.30;90.00;;;;;;5048411;28;20465;-78
2023/12/21 01:51:23;;;;;;;1999.90;999.90;;;3.30;90.10;;;;;;5047488;28;20026;-77
2023/12/21 01:53:51;;;;;;;1999.90;999.90;;;3.30;90.00;;;;;;5047829;28;20021;-77
2023/12/21 01:56:20;;;;;;;1999.90;999.90;;;3.30;90.10;;;;;;5048535;28;20032;-77
2023/12/21 01:58:49;;;;;;;1999.90;999.90;;;3.30;90.30;;;;;;5048880;28;20076;-77
2023/12/21 02:01:17;;;;;;;1999.90;999.90;;;3.30;90.30;;;;;;5062096;28;20483;-78
2023/12/21 02:03:43;;;;;;;1999.90;999.90;;;3.30;90.30;;;;;;5046574;28;20029;-77
2023/12/21 02:06:09;;;;;;;1999.90;999.90;;;3.30;90.70;;;;;;5049687;28;20021;-76
2023/12/21 02:08:35;;;;;;;1999.90;999.90;;;3.30;90.50;;;;;;5047635;28;20079;-77
2023/12/21 02:11:06;;;;;;;1999.90;999.90;;;3.30;90.80;;;;;;5044716;28;20475;-76
2023/12/21 02:13:32;;;;;;;1999.90;999.90;;;3.20;91.30;;;;;;5045994;28;20059;-77
2023/12/21 02:16:02;;;;;;;1999.90;999.90;;;3.10;91.20;;;;;;5047681;28;20064;-76
2023/12/21 02:18:27;;;;;;;1999.90;999.90;;;3.10;91.40;;;;;;5047740;28;20047;-77
2023/12/21 02:20:56;;;;;;;1999.90;999.90;;;3.10;91.50;;;;;;5046720;28;20459;-77
2023/12/21 02:23:23;;;;;;;1999.90;999.90;;;3.20;91.20;;;;;;5049642;28;20017;-77
2023/12/21 02:25:50;;;;;;;1999.90;999.90;;;3.20;91.30;;;;;;5048802;28;20427;-78
2023/12/21 02:28:16;;;;;;;1999.90;999.90;;;3.20;91.30;;;;;;5046569;28;20136;-77
2023/12/21 02:30:41;;;;;;;1999.90;999.90;;;3.30;91.10;;;;;;5047730;28;20112;-77
2023/12/21 02:33:07;;;;;;;1999.90;999.90;;;3.20;91.20;;;;;;5031091;28;20410;-77
2023/12/21 02:35:33;;;;;;;1999.90;999.90;;;3.30;91.10;;;;;;5044408;28;20036;-77
2023/12/21 02:37:58;;;;;;;1999.90;999.90;;;3.30;91.20;;;;;;5049707;28;20407;-76
2023/12/21 02:40:24;;;;;;;1999.90;999.90;;;3.30;91.20;;;;;;5044351;28;20031;-76
2023/12/21 02:42:50;;;;;;;1999.90;999.90;;;3.30;91.00;;;;;;5031918;28;20037;-77
2023/12/21 02:45:18;;;;;;;1999.90;999.90;;;3.30;91.10;;;;;;5046021;28;20032;-78
2023/12/21 02:47:44;;;;;;;1999.90;999.90;;;3.20;91.50;;;;;;5047557;28;20064;-76
2023/12/21 02:50:10;;;;;;;1999.90;999.90;;;3.20;92.80;;;;;;5048711;28;20068;-76
2023/12/21 02:52:35;;;;;;;1999.90;999.90;;;3.00;93.00;;;;;;5048641;28;20029;-77
2023/12/21 02:55:01;;;;;;;1999.90;999.90;;;3.00;93.60;;;;;;5048224;28;20060;-77
2023/12/21 02:57:27;;;;;;;1999.90;999.90;;;3.00;93.70;;;;;;5047328;28;20547;-77
2023/12/21 02:59:53;;;;;;;1999.90;999.90;;;2.90;93.80;;;;;;5048936;28;20104;-77
2023/12/21 03:02:18;;;;;;;1999.90;999.90;;;2.90;94.10;;;;;;5046098;28;20021;-77
2023/12/21 03:04:44;;;;;;;1999.90;999.90;;;2.90;94.30;;;;;;5046546;28;20163;-76
2023/12/21 03:07:10;;;;;;;1999.90;999.90;;;2.90;94.70;;;;;;5048189;28;20667;-76
2023/12/21 03:09:35;;;;;;;1999.90;999.90;;;2.90;94.80;;;;;;5047501;28;20063;-77
2023/12/21 03:12:01;;;;;;;1999.90;999.90;;;2.80;95.00;;;;;;5044981;28;20028;-77
2023/12/21 03:14:26;;;;;;;1999.90;999.90;;;2.80;94.90;;;;;;5046527;28;20467;-76
2023/12/21 03:16:52;;;;;;;1999.90;999.90;;;2.80;95.20;;;;;;5047396;28;20029;-78
2023/12/21 03:19:18;;;;;;;1999.90;999.90;;;2.70;95.30;;;;;;5047776;28;20032;-76
2023/12/21 03:21:43;;;;;;;1999.90;999.90;;;2.80;95.30;;;;;;5047427;28;20029;-77
2023/12/21 03:24:09;;;;;;;1999.90;999.90;;;2.80;95.10;;;;;;5047699;28;20056;-76
2023/12/21 03:26:34;;;;;;;1999.90;999.90;;;2.80;95.10;;;;;;5042382;28;20111;-77
2023/12/21 03:29:00;;;;;;;1999.90;999.90;;;2.80;95.30;;;;;;5047781;28;20083;-77
2023/12/21 03:31:26;;;;;;;1999.90;999.90;;;2.80;95.30;;;;;;5044459;28;20040;-77
2023/12/21 03:33:51;;;;;;;1999.90;999.90;;;2.80;95.50;;;;;;5046009;28;20029;-78
2023/12/21 03:36:17;;;;;;;1999.90;999.90;;;2.80;95.20;;;;;;5044799;28;20029;-78
2023/12/21 03:38:43;;;;;;;1999.90;999.90;;;2.90;95.00;;;;;;5045564;28;20025;-77
2023/12/21 03:41:09;;;;;;;1999.90;999.90;;;2.90;95.50;;;;;;5044502;28;20067;-76
2023/12/21 03:43:35;;;;;;;1999.90;999.90;;;2.90;95.10;;;;;;5047214;28;20037;-78
2023/12/21 03:46:01;;;;;;;1999.90;999.90;;;2.90;94.90;;;;;;5044082;28;20546;-78
2023/12/21 03:48:27;;;;;;;1999.90;999.90;;;2.90;95.10;;;;;;5044567;28;20140;-78
2023/12/21 03:50:52;;;;;;;1999.90;999.90;;;2.90;94.50;;;;;;5044577;28;20083;-77
2023/12/21 03:53:18;;;;;;;1999.90;999.90;;;3.00;94.80;;;;;;5043541;28;20079;-77
2023/12/21 03:55:44;;;;;;;1999.90;999.90;;;3.00;94.80;;;;;;5046446;28;20029;-77
2023/12/21 03:58:09;;;;;;;1999.90;999.90;;;3.00;95.90;;;;;;5043842;28;20059;-76
2023/12/21 04:00:35;;;;;;;1999.90;999.90;;;3.00;94.70;;;;;;5046413;28;20154;-77
2023/12/21 04:03:01;;;;;;;1999.90;999.90;;;3.00;95.10;;;;;;5046999;28;20033;-76
2023/12/21 04:05:27;;;;;;;1999.90;999.90;;;3.10;94.30;;;;;;5046561;28;20051;-77
2023/12/21 04:07:52;;;;;;;1999.90;999.90;;;3.10;94.20;;;;;;5046494;28;20028;-76
2023/12/21 04:10:18;;;;;;;1999.90;999.90;;;3.10;94.80;;;;;;5028358;28;20032;-77
2023/12/21 04:12:44;;;;;;;1999.90;999.90;;;3.20;94.00;;;;;;5045345;28;20028;-77
2023/12/21 04:15:11;;;;;;;1999.90;999.90;;;3.20;94.30;;;;;;5045458;28;20402;-78
2023/12/21 04:17:37;;;;;;;1999.90;999.90;;;3.20;94.30;;;;;;5043955;28;20025;-76
2023/12/21 04:20:04;;;;;;;1999.90;999.90;;;3.20;93.90;;;;;;5025065;28;20025;-77
2023/12/21 04:22:30;;;;;;;1999.90;999.90;;;3.20;94.20;;;;;;5047369;28;20037;-77
2023/12/21 04:24:55;;;;;;;1999.90;999.90;;;3.20;93.80;;;;;;5046106;28;20537;-77
2023/12/21 04:27:21;;;;;;;1999.90;999.90;;;3.30;93.10;;;;;;5045409;28;20556;-77
2023/12/21 04:29:47;;;;;;;1999.90;999.90;;;3.50;93.00;;;;;;5043678;28;20493;-77
2023/12/21 04:32:12;;;;;;;1999.90;999.90;;;3.50;92.50;;;;;;5043126;28;20029;-77
2023/12/21 04:34:38;;;;;;;1999.90;999.90;;;3.50;92.30;;;;;;5043537;28;20032;-77
2023/12/21 04:37:03;;;;;;;1999.90;999.90;;;3.50;92.00;;;;;;5047037;28;20079;-77
2023/12/21 04:39:29;;;;;;;1999.90;999.90;;;3.60;91.60;;;;;;5043866;28;20514;-77
2023/12/21 04:41:55;;;;;;;1999.90;999.90;;;3.60;91.80;;;;;;5045430;28;20441;-78
2023/12/21 04:44:21;;;;;;;1999.90;999.90;;;3.60;91.60;;;;;;5044028;28;20033;-79
2023/12/21 04:46:48;;;;;;;1999.90;999.90;;;3.60;91.70;;;;;;5046512;28;20083;-79
2023/12/21 04:49:16;;;;;;;1999.90;999.90;;;3.60;91.80;;;;;;5044333;28;20045;-77
2023/12/21 04:51:43;;;;;;;1999.90;999.90;;;3.50;92.40;;;;;;5045312;28;20033;-77
2023/12/21 04:54:08;;;;;;;1999.90;999.90;;;3.60;91.70;;;;;;5042921;28;20029;-77
2023/12/21 04:56:40;;;;;;;1999.90;999.90;;;3.60;92.10;;;;;;5044077;28;20066;-78
2023/12/21 04:59:05;;;;;;;1999.90;999.90;;;3.60;91.90;;;;;;5043455;28;20021;-78
2023/12/21 05:01:31;;;;;;;1999.90;999.90;;;3.60;92.00;;;;;;5044232;28;20399;-75
2023/12/21 05:03:56;;;;;;;1999.90;999.90;;;3.60;91.90;;;;;;5044003;28;20052;-77
2023/12/21 05:06:22;;;;;;;1999.90;999.90;;;3.60;91.90;;;;;;5041916;28;20025;-76
2023/12/21 05:08:48;;;;;;;1999.90;999.90;;;3.70;91.40;;;;;;5045653;28;20376;-77
2023/12/21 05:11:13;;;;;;;1999.90;999.90;;;3.70;91.40;;;;;;5044315;28;20025;-76
2023/12/21 05:13:39;;;;;;;1999.90;999.90;;;3.70;91.30;;;;;;5046813;28;20029;-78
2023/12/21 05:16:05;;;;;;;1999.90;999.90;;;3.70;91.20;;;;;;5042299;28;20029;-77
2023/12/21 05:18:31;;;;;;;1999.90;999.90;;;3.70;91.20;;;;;;5044121;28;20095;-77
2023/12/21 05:20:57;;;;;;;1999.90;999.90;;;3.70;91.00;;;;;;5041881;28;20025;-76
2023/12/21 05:23:22;;;;;;;1999.90;999.90;;;3.80;91.20;;;;;;5044202;28;20025;-77
2023/12/21 05:25:48;;;;;;;1999.90;999.90;;;3.80;91.00;;;;;;5041971;28;20663;-77
2023/12/21 05:28:13;;;;;;;1999.90;999.90;;;3.70;91.10;;;;;;5045959;28;20041;-78
2023/12/21 05:30:39;;;;;;;1999.90;999.90;;;3.80;91.00;;;;;;5042482;28;20523;-75
2023/12/21 05:33:05;;;;;;;1999.90;999.90;;;3.80;90.70;;;;;;5043546;28;20094;-77
2023/12/21 05:35:31;;;;;;;1999.90;999.90;;;3.90;90.50;;;;;;5043045;28;20041;-76
2023/12/21 05:37:57;;;;;;;1999.90;999.90;;;3.90;90.60;;;;;;5045222;28;20025;-76
2023/12/21 05:40:23;;;;;;;1999.90;999.90;;;3.90;90.40;;;;;;5040969;28;20036;-77
2023/12/21 05:42:48;;;;;;;1999.90;999.90;;;3.90;90.50;;;;;;5042203;28;20052;-76
2023/12/21 05:45:14;;;;;;;1999.90;999.90;;;3.90;90.20;;;;;;5044202;28;20399;-77
2023/12/21 05:47:40;;;;;;;1999.90;999.90;;;3.90;90.40;;;;;;5044514;28;20030;-77
2023/12/21 05:50:06;;;;;;;1999.90;999.90;;;3.90;90.10;;;;;;5045380;28;20064;-76
2023/12/21 05:52:32;;;;;;;1999.90;999.90;;;3.90;90.00;;;;;;5044109;28;20597;-77
2023/12/21 05:54:57;;;;;;;1999.90;999.90;;;4.00;90.20;;;;;;5043908;28;20029;-78
2023/12/21 05:57:24;;;;;;;1999.90;999.90;;;4.10;89.90;;;;;;5044649;28;20033;-77
2023/12/21 05:59:49;;;;;;;1999.90;999.90;;;4.10;89.60;;;;;;5044211;28;20021;-79
2023/12/21 06:02:18;;;;;;;1999.90;999.90;;;4.10;89.40;;;;;;5054379;28;20532;-76
2023/12/21 06:04:44;;;;;;;1999.90;999.90;;;4.10;89.60;;;;;;5047092;28;20036;-79
2023/12/21 06:07:10;;;;;;;1999.90;999.90;;;4.10;89.30;;;;;;5043244;28;20625;-77
2023/12/21 06:09:35;;;;;;;1999.90;999.90;;;4.10;89.20;;;;;;5045440;28;20490;-77
2023/12/21 06:12:01;;;;;;;1999.90;999.90;;;4.10;89.20;;;;;;5046545;28;20055;-76
2023/12/21 06:14:27;;;;;;;1999.90;999.90;;;4.20;89.20;;;;;;5030665;28;20041;-78
2023/12/21 06:16:53;;;;;;;1999.90;999.90;;;4.20;89.20;;;;;;5049291;28;20701;-80
2023/12/21 06:19:18;;;;;;;1999.90;999.90;;;4.20;89.40;;;;;;5043012;28;20116;-78
2023/12/21 06:21:44;;;;;;;1999.90;999.90;;;4.10;89.20;;;;;;5047665;28;20029;-75
2023/12/21 06:24:10;;;;;;;1999.90;999.90;;;4.10;89.90;;;;;;5042240;28;20029;-75
2023/12/21 06:26:39;;;;;;;1999.90;999.90;;;4.20;90.00;;;;;;5048864;28;20469;-76
2023/12/21 06:29:08;;;;;;;1999.90;999.90;;;4.20;89.30;;;;;;5046782;28;20037;-77
2023/12/21 06:31:34;;;;;;;1999.90;999.90;;;4.30;89.00;;;;;;5042747;28;20041;-76
2023/12/21 06:34:00;;;;;;;1999.90;999.90;;;4.30;89.50;;;;;;5046021;28;20021;-79
2023/12/21 06:36:25;;;;;;;1999.90;999.90;;;4.30;89.20;;;;;;5041853;28;20392;-80
2023/12/21 06:38:52;;;;;;;1999.90;999.90;;;4.40;88.60;;;;;;5046502;28;20128;-79
2023/12/21 06:41:17;;;;;;;1999.90;999.90;;;4.40;89.10;;;;;;5045394;28;20040;-80
2023/12/21 06:43:43;;;;;;;1999.90;999.90;;;4.40;88.40;;;;;;5042294;28;20037;-79
2023/12/21 06:46:15;;;;;;;1999.90;999.90;;;4.50;88.30;;;;;;5045202;28;20091;-79
2023/12/21 06:48:44;;;;;;;1999.90;999.90;;;4.50;88.20;;;;;;5047187;28;20858;-80
2023/12/21 06:51:11;;;;;;;1999.90;999.90;;;4.50;87.60;;;;;;5046926;28;20403;-77
2023/12/21 06:53:38;;;;;;;1999.90;999.90;;;4.60;87.80;;;;;;5044705;28;20535;-78
2023/12/21 06:56:04;;;;;;;1999.90;999.90;;;4.60;88.40;;;;;;5045631;28;20037;-79
2023/12/21 06:58:30;;;;;;;1999.90;999.90;;;4.60;87.70;;;;;;5045674;28;20044;-79
2023/12/21 07:00:56;;;;;;;1999.90;999.90;;;4.60;87.90;;;;;;5029258;28;20037;-78
2023/12/21 07:03:24;;;;;;;1999.90;999.90;;;4.70;87.00;;;;;;5047103;28;20028;-77
2023/12/21 07:05:53;;;;;;;1999.90;999.90;;;4.70;87.20;;;;;;5042625;28;20037;-79
2023/12/21 07:08:27;;;;;;;1999.90;999.90;;;4.70;87.20;;;;;;5047192;28;20033;-81
2023/12/21 07:10:54;;;;;;;1999.90;999.90;;;4.80;86.90;;;;;;5042373;28;20411;-78
2023/12/21 07:13:21;;;;;;;1999.90;999.90;;;4.80;87.40;;;;;;5045537;28;20075;-79
2023/12/21 07:15:46;;;;;;;1999.90;999.90;;;4.70;87.90;;;;;;5045773;28;20083;-78
2023/12/21 07:18:12;;;;;;;1999.90;999.90;;;4.80;87.30;;;;;;5047378;28;20494;-77
2023/12/21 07:20:38;;;;;;;1999.90;999.90;;;4.70;87.80;;;;;;5040751;28;20643;-78
2023/12/21 07:23:04;;;;;;;1999.90;999.90;;;4.70;88.20;;;;;;5046311;28;20032;-78
2023/12/21 07:25:31;;;;;;;1999.90;999.90;;;4.70;88.10;;;;;;5057684;28;20151;-77
2023/12/21 07:27:58;;;;;;;1999.90;999.90;;;4.70;88.40;;;;;;5047947;28;20031;-81
2023/12/21 07:30:23;;;;;;;1999.90;999.90;;;4.70;88.60;;;;;;5041104;28;20037;-81
2023/12/21 07:32:49;;;;;;;1999.90;999.90;;;4.70;88.90;;;;;;5044907;28;20035;-79
2023/12/21 07:35:15;;;;;;;1999.90;999.90;;;4.70;88.50;;;;;;5030416;28;20116;-77
2023/12/21 07:37:41;;;;;;;1999.90;999.90;;;4.70;88.70;;;;;;5045133;28;20046;-80
2023/12/21 07:40:07;;;;;;;1999.90;999.90;;;4.70;88.80;;;;;;5044403;28;20713;-80
2023/12/21 07:42:33;;;;;;;1999.90;999.90;;;4.80;88.40;;;;;;5041834;28;20033;-78
2023/12/21 07:44:59;;;;;;;1999.90;999.90;;;4.80;88.00;;;;;;5046994;28;20040;-82
2023/12/21 07:47:24;;;;;;;1999.90;999.90;;;4.90;88.10;;;;;;5045868;28;20033;-77
2023/12/21 07:49:51;;;;;;;1999.90;999.90;;;4.90;88.20;;;;;;5030460;28;20056;-82
2023/12/21 07:52:17;;;;;;;1999.90;999.90;;;5.00;87.70;;;;;;5035429;28;20056;-79
2023/12/21 07:54:43;;;;;;;1999.90;999.90;;;5.00;87.80;;;;;;5045247;28;20623;-80
2023/12/21 07:57:10;;;;;;;1999.90;999.90;;;5.00;87.60;;;;;;5045579;28;20024;-79
2023/12/21 07:59:36;;;;;;;1999.90;999.90;;;5.10;87.50;;;;;;5047671;28;20021;-79
2023/12/21 08:02:02;;;;;;;1999.90;999.90;;;5.10;87.40;;;;;;5045931;28;20587;-78
2023/12/21 08:04:28;;;;;;;1999.90;999.90;;;5.10;87.40;;;;;;5045318;28;20630;-82
2023/12/21 08:06:54;;;;;;;1999.90;999.90;;;5.20;87.30;;;;;;5043558;28;20029;-77
2023/12/21 08:09:21;;;;;;;1999.90;999.90;;;5.20;87.40;;;;;;5044992;28;20483;-80
2023/12/21 08:11:46;;;;;;;1999.90;999.90;;;5.30;87.40;;;;;;5046009;28;20112;-76
2023/12/21 08:14:13;;;;;;;1999.90;999.90;;;5.40;87.40;;;;;;5056117;28;20543;-78
2023/12/21 08:16:39;;;;;;;1999.90;999.90;;;5.40;87.00;;;;;;5046939;28;20368;-82
2023/12/21 08:19:06;;;;;;;1999.90;999.90;;;5.50;87.40;;;;;;5044382;28;20040;-78
2023/12/21 08:21:32;;;;;;;1999.90;999.90;;;5.50;87.20;;;;;;5046771;28;20044;-77
2023/12/21 08:23:58;;;;;;;1999.90;999.90;;;5.50;87.20;;;;;;5044012;28;20028;-77
2023/12/21 08:26:24;;;;;;;1999.90;999.90;;;5.60;87.20;;;;;;5045678;28;20043;-77
2023/12/21 08:28:50;;;;;;;1999.90;999.90;;;5.60;87.10;;;;;;5045018;28;20020;-77
2023/12/21 08:31:26;;;;;;;1999.90;999.90;;;5.60;87.10;;;;;;5046076;28;20021;-78
2023/12/21 08:33:51;;;;;;;1999.90;999.90;;;5.70;86.90;;;;;;5045447;28;20029;-79
2023/12/21 08:36:17;;;;;;;1999.90;999.90;;;5.70;86.80;;;;;;5045276;28;20510;-80
2023/12/21 08:38:43;;;;;;;1999.90;999.90;;;5.70;87.00;;;;;;5044882;28;20033;-78
2023/12/21 08:41:08;;;;;;;1999.90;999.90;;;5.70;87.40;;;;;;5046564;28;20028;-78
2023/12/21 08:43:36;;;;;;;1999.90;999.90;;;5.70;87.10;;;;;;5045301;28;20494;-78
2023/12/21 08:46:02;;;;;;;1999.90;999.90;;;5.80;86.90;;;;;;5043523;28;20518;-80
2023/12/21 08:48:28;;;;;;;1999.90;999.90;;;5.80;86.90;;;;;;5043432;28;20052;-78
2023/12/21 08:50:54;;;;;;;1999.90;999.90;;;5.90;86.60;;;;;;5045273;28;20032;-79
2023/12/21 08:53:19;;;;;;;1999.90;999.90;;;5.80;86.90;;;;;;5045282;28;20029;-77
2023/12/21 08:55:45;;;;;;;1999.90;999.90;;;5.90;86.70;;;;;;5044932;28;20044;-78
2023/12/21 08:58:11;;;;;;;1999.90;999.90;;;5.90;87.10;;;;;;5046114;28;20037;-78
2023/12/21 09:00:36;;;;;;;1999.90;999.90;;;5.80;87.10;;;;;;5056907;28;20082;-78
2023/12/21 09:03:03;;;;;;;1999.90;999.90;;;5.90;86.60;;;;;;5042797;28;20025;-77
2023/12/21 09:05:30;;;;;;;1999.90;999.90;;;6.00;87.20;;;;;;5041970;28;20060;-79
2023/12/21 09:07:55;;;;;;;1999.90;999.90;;;6.00;87.00;;;;;;5043504;28;20399;-78
2023/12/21 09:10:21;;;;;;;1999.90;999.90;;;6.00;86.90;;;;;;5043127;28;20044;-79
2023/12/21 09:12:48;;;;;;;1999.90;999.90;;;6.00;87.70;;;;;;5044488;28;20388;-78
2023/12/21 09:15:14;;;;;;;1999.90;999.90;;;6.10;86.70;;;;;;5042675;28;20036;-77
2023/12/21 09:17:40;;;;;;;1999.90;999.90;;;6.00;86.80;;;;;;5027809;28;20074;-77
2023/12/21 09:20:10;;;;;;;1999.90;999.90;;;6.10;86.80;;;;;;5045161;28;20287;-77
2023/12/21 09:22:37;;;;;;;1999.90;999.90;;;6.20;86.50;;;;;;5044964;28;20391;-79
2023/12/21 09:25:03;;;;;;;1999.90;999.90;;;6.20;86.30;;;;;;5041275;28;20025;-77
2023/12/21 09:27:30;;;;;;;1999.90;999.90;;;6.20;86.80;;;;;;5040914;28;20407;-82
2023/12/21 09:29:56;;;;;;;1999.90;999.90;;;6.20;86.50;;;;;;5042672;28;20029;-78
2023/12/21 09:32:22;;;;;;;1999.90;999.90;;;6.20;86.70;;;;;;5044997;28;20037;-78
2023/12/21 09:34:48;;;;;;;1999.90;999.90;;;6.30;86.60;;;;;;5041753;28;20078;-78
2023/12/21 09:37:14;;;;;;;1999.90;999.90;;;6.30;86.70;;;;;;5046761;28;20033;-78
2023/12/21 09:39:40;;;;;;;1999.90;999.90;;;6.30;86.10;;;;;;5044165;28;20033;-78
2023/12/21 09:42:06;;;;;;;1999.90;999.90;;;6.30;86.60;;;;;;5046746;28;20299;-79
2023/12/21 09:44:34;;;;;;;1999.90;999.90;;;6.30;86.10;;;;;;5045423;28;20033;-80
2023/12/21 09:47:07;;;;;;;1999.90;999.90;;;6.30;85.80;;;;;;5045508;28;20025;-79
2023/12/21 09:49:37;;;;;;;1999.90;999.90;;;6.30;85.60;;;;;;5047384;28;20053;-78
2023/12/21 09:52:07;;;;;;;1999.90;999.90;;;6.30;86.10;;;;;;5050329;28;20028;-79
2023/12/21 09:54:34;;;;;;;1999.90;999.90;;;6.20;86.00;;;;;;5048839;28;20120;-80
2023/12/21 09:57:00;;;;;;;1999.90;999.90;;;6.20;86.10;;;;;;5059543;28;20033;-83
2023/12/21 09:59:30;;;;;;;1999.90;999.90;;;6.30;85.90;;;;;;5049664;28;20044;-81
2023/12/21 10:01:56;;;;;;;1999.90;999.90;;;6.30;86.00;;;;;;5048153;28;20566;-79
2023/12/21 10:04:21;;;;;;;1999.90;999.90;;;6.30;86.00;;;;;;5048657;28;20060;-80
2023/12/21 10:06:47;;;;;;;1999.90;999.90;;;6.30;86.60;;;;;;5044346;28;20024;-77
2023/12/21 10:09:15;;;;;;;1999.90;999.90;;;6.20;88.20;;;;;;5048719;28;20082;-82
2023/12/21 10:11:42;;;;;;;1999.90;999.90;;;6.10;87.90;;;;;;5045848;28;20029;-80
2023/12/21 10:14:21;;;;;;;1999.90;999.90;;;6.10;87.90;;;;;;5044779;28;20104;-78
2023/12/21 10:16:47;;;;;;;1999.90;999.90;;;6.10;88.10;;;;;;5047422;28;20037;-78
2023/12/21 10:19:13;;;;;;;1999.90;999.90;;;6.10;88.40;;;;;;5047385;28;20098;-78
2023/12/21 10:21:42;;;;;;;1999.90;999.90;;;6.10;88.00;;;;;;5048236;28;20110;-79
2023/12/21 10:24:10;;;;;;;1999.90;999.90;;;6.20;87.80;;;;;;5046623;28;20028;-80
2023/12/21 10:26:46;;;;;;;1999.90;999.90;;;6.20;88.10;;;;;;5048571;28;20126;-79
2023/12/21 10:29:16;;;;;;;1999.90;999.90;;;6.30;87.40;;;;;;5047669;28;20104;-82
2023/12/21 10:31:46;;;;;;;1999.90;999.90;;;6.20;87.40;;;;;;5027305;28;20039;-82
2023/12/21 10:34:12;;;;;;;1999.90;999.90;;;6.20;87.20;;;;;;5048236;28;20033;-80
2023/12/21 10:36:45;;;;;;;1999.90;999.90;;;6.10;87.40;;;;;;5047428;28;20021;-84
2023/12/21 10:39:12;;;;;;;1999.90;999.90;;;6.20;87.90;;;;;;5048510;28;20027;-79
2023/12/21 10:41:45;;;;;;;1999.90;999.90;;;6.20;87.90;;;;;;5049047;28;20037;-82
2023/12/21 10:44:14;;;;;;;1999.90;999.90;;;6.20;87.80;;;;;;5048618;28;20033;-78
2023/12/21 10:46:43;;;;;;;1999.90;999.90;;;6.20;88.60;;;;;;5042492;28;20142;-78
2023/12/21 10:49:12;;;;;;;1999.90;999.90;;;6.10;88.30;;;;;;5046736;28;20049;-82
2023/12/21 10:51:43;;;;;;;1999.90;999.90;;;6.10;87.90;;;;;;5046677;28;20030;-78
2023/12/21 10:54:11;;;;;;;1999.90;999.90;;;6.00;87.90;;;;;;5047552;28;20566;-80
2023/12/21 10:56:43;;;;;;;1999.90;999.90;;;6.00;88.90;;;;;;5049105;28;20111;-82
2023/12/21 10:59:12;;;;;;;1999.90;999.90;;;6.10;87.70;;;;;;5047474;28;20107;-78
2023/12/21 11:01:38;;;;;;;1999.90;999.90;;;6.10;87.80;;;;;;5047354;28;20033;-79
2023/12/21 11:04:05;;;;;;;1999.90;999.90;;;6.10;87.20;;;;;;5046056;28;20036;-81
2023/12/21 11:06:33;;;;;;;1999.90;999.90;;;6.20;87.20;;;;;;5046877;28;20037;-78
2023/12/21 11:09:00;;;;;;;1999.90;999.90;;;6.20;88.00;;;;;;5047036;28;20029;-78
2023/12/21 11:11:26;;;;;;;1999.90;999.90;;;6.20;87.50;;;;;;5044567;28;20112;-80
2023/12/21 11:13:54;;;;;;;1999.90;999.90;;;6.10;87.10;;;;;;5046999;28;20121;-81
2023/12/21 11:16:24;;;;;;;1999.90;999.90;;;6.20;87.30;;;;;;5042907;28;20029;-81
2023/12/21 11:18:53;;;;;;;1999.90;999.90;;;6.10;87.80;;;;;;5044594;28;20025;-78
2023/12/21 11:21:20;;;;;;;1999.90;999.90;;;6.20;87.60;;;;;;5046267;28;20131;-78
2023/12/21 11:23:48;;;;;;;1999.90;999.90;;;6.20;87.30;;;;;;5046578;28;20434;-80
2023/12/21 11:26:25;;;;;;;1999.90;999.90;;;6.20;87.10;;;;;;5044155;28;20036;-80
2023/12/21 11:29:01;;;;;;;1999.90;999.90;;;6.20;87.00;;;;;;5047095;28;20039;-82
2023/12/21 11:31:38;;;;;;;1999.90;999.90;;;6.20;87.10;;;;;;5046812;28;20035;-80
2023/12/21 11:34:14;;;;;;;1999.90;999.90;;;6.20;87.10;;;;;;5046610;28;20043;-81
2023/12/21 11:36:41;;;;;;;1999.90;999.90;;;6.20;87.60;;;;;;5045922;28;20079;-80
2023/12/21 11:39:20;;;;;;;1999.90;999.90;;;6.20;87.20;;;;;;5049137;28;20308;-81
2023/12/21 11:42:06;;;;;;;1999.90;999.90;;;6.10;87.40;;;;;;5043500;28;20037;-81
2023/12/21 11:44:38;;;;;;;1999.90;999.90;;;6.20;87.40;;;;;;5042589;28;20040;-79
2023/12/21 11:47:25;;;;;;;1999.90;999.90;;;6.20;87.70;;;;;;5046999;28;20025;-81
2023/12/21 11:50:09;;;;;;;1999.90;999.90;;;6.20;87.50;;;;;;5046585;28;20147;-78
2023/12/21 11:52:36;;;;;;;1999.90;999.90;;;6.20;87.30;;;;;;5043787;28;20033;-78
2023/12/21 11:55:01;;;;;;;1999.90;999.90;;;6.20;87.80;;;;;;5045948;28;20094;-78
2023/12/21 11:57:29;;;;;;;1999.90;999.90;;;6.20;87.70;;;;;;5047681;28;20052;-81
2023/12/21 12:00:06;;;;;;;1999.90;999.90;;;6.20;88.00;;;;;;5045861;28;20500;-78
2023/12/21 12:02:34;;;;;;;1999.90;999.90;;;6.20;87.80;;;;;;5045350;28;20100;-81
2023/12/21 12:05:02;;;;;;;1999.90;999.90;;;6.20;88.10;;;;;;5044655;28;20021;-77
2023/12/21 12:07:31;;;;;;;1999.90;999.90;;;6.30;87.80;;;;;;5044649;28;20116;-78